createdAt,value
2022-09-13T00:00:33.811Z,4.20
2022-09-13T00:03:38.753Z,3.60
2022-09-13T00:06:42.391Z,3.93
2022-09-13T00:09:46.018Z,3.80
2022-09-13T00:12:50.491Z,3.50
2022-09-13T00:15:54.038Z,3.93
2022-09-13T00:19:00.968Z,3.40
2022-09-13T00:22:06.489Z,3.97
2022-09-13T00:25:11.290Z,3.80
2022-09-13T00:28:14.852Z,3.70
2022-09-13T00:31:19.170Z,4.30
2022-09-13T00:34:24.160Z,3.90
2022-09-13T00:37:27.726Z,3.80
2022-09-13T00:40:31.450Z,3.97
2022-09-13T00:43:49.264Z,3.93
2022-09-13T00:46:55.111Z,3.83
2022-09-13T00:50:07.402Z,4.13
2022-09-13T00:53:17.597Z,4.90
2022-09-13T00:56:28.491Z,4.60
2022-09-13T00:59:41.096Z,5.07
2022-09-13T01:02:51.486Z,5.87
2022-09-13T01:06:01.411Z,7.27
2022-09-13T01:09:07.171Z,6.40
2022-09-13T01:12:25.737Z,7.07
2022-09-13T01:15:29.299Z,8.10
2022-09-13T01:18:32.948Z,7.97
2022-09-13T01:22:53.783Z,8.33
2022-09-13T01:26:44.744Z,8.33
2022-09-13T01:30:16.612Z,9.10
2022-09-13T01:33:45.490Z,11.07
2022-09-13T01:37:34.323Z,10.27
2022-09-13T01:41:01.889Z,10.43
2022-09-13T01:44:21.456Z,11.03
2022-09-13T01:47:34.127Z,10.73
2022-09-13T01:50:44.675Z,11.67
2022-09-13T01:54:03.432Z,10.83
2022-09-13T01:57:17.801Z,10.87
2022-09-13T02:00:21.818Z,11.27
2022-09-13T02:03:35.203Z,10.67
2022-09-13T02:06:45.722Z,12.20
2022-09-13T02:09:56.817Z,11.03
2022-09-13T02:13:03.259Z,11.43
2022-09-13T02:16:18.498Z,10.87
2022-09-13T02:19:31.235Z,11.37
2022-09-13T02:22:41.574Z,11.13
2022-09-13T02:25:50.155Z,10.70
2022-09-13T02:28:57.587Z,11.20
2022-09-13T02:32:11.451Z,11.03
2022-09-13T02:35:23.931Z,11.73
2022-09-13T02:38:34.528Z,11.60
2022-09-13T02:41:47.699Z,12.63
2022-09-13T02:44:55.519Z,11.60
2022-09-13T02:48:04.890Z,12.80
2022-09-13T02:51:18.982Z,12.67
2022-09-13T02:54:34.362Z,12.23
2022-09-13T02:57:48.614Z,13.27
2022-09-13T03:00:53.033Z,13.73
2022-09-13T03:03:56.816Z,13.57
2022-09-13T03:07:04.178Z,14.63
2022-09-13T03:10:12.334Z,13.27
2022-09-13T03:14:09.823Z,13.77
2022-09-13T03:17:31.350Z,14.27
2022-09-13T03:20:52.843Z,14.73
2022-09-13T03:24:11.345Z,12.90
2022-09-13T03:27:32.035Z,14.80
2022-09-13T03:30:41.613Z,14.20
2022-09-13T03:33:57.188Z,15.17
2022-09-13T03:37:09.251Z,15.83
2022-09-13T03:40:21.687Z,16.40
2022-09-13T03:43:35.873Z,16.30
2022-09-13T03:46:45.174Z,16.90
2022-09-13T03:49:51.222Z,16.53
2022-09-13T03:53:02.507Z,17.57
2022-09-13T03:56:16.420Z,16.43
2022-09-13T03:59:20.708Z,17.80
2022-09-13T04:02:27.136Z,18.27
2022-09-13T04:05:30.786Z,16.67
2022-09-13T04:08:34.907Z,18.17
2022-09-13T04:11:41.151Z,18.13
2022-09-13T04:14:45.590Z,18.03
2022-09-13T04:17:49.293Z,19.33
2022-09-13T04:20:58.203Z,19.37
2022-09-13T04:24:02.449Z,20.17
2022-09-13T04:27:14.198Z,20.63
2022-09-13T04:30:18.058Z,21.23
2022-09-13T04:33:21.672Z,20.90
2022-09-13T04:36:26.725Z,20.07
2022-09-13T04:39:30.337Z,21.67
2022-09-13T04:42:35.271Z,22.27
2022-09-13T04:45:39.982Z,23.40
2022-09-13T04:48:43.715Z,22.77
2022-09-13T04:51:48.259Z,23.20
2022-09-13T04:54:52.153Z,22.83
2022-09-13T04:57:57.228Z,23.43
2022-09-13T05:01:03.708Z,23.70
2022-09-13T05:04:08.752Z,23.87
2022-09-13T05:07:12.515Z,24.50
2022-09-13T05:10:19.425Z,24.80
2022-09-13T05:13:24.896Z,23.53
2022-09-13T05:16:31.270Z,24.90
2022-09-13T05:19:35.001Z,24.57
2022-09-13T05:22:38.562Z,23.13
2022-09-13T05:25:42.172Z,23.17
2022-09-13T05:28:47.329Z,24.03
2022-09-13T05:31:50.904Z,24.83
2022-09-13T05:34:54.725Z,23.97
2022-09-13T05:37:58.351Z,24.60
2022-09-13T05:41:05.139Z,24.17
2022-09-13T05:44:13.130Z,22.23
2022-09-13T05:47:17.275Z,23.50
2022-09-13T05:50:45.189Z,23.87
2022-09-13T05:53:48.500Z,23.77
2022-09-13T05:56:54.348Z,24.10
2022-09-13T05:59:59.218Z,23.00
2022-09-13T06:03:02.836Z,24.50
2022-09-13T06:06:07.916Z,24.60
2022-09-13T06:09:14.131Z,23.53
2022-09-13T06:12:17.668Z,23.57
2022-09-13T06:15:22.651Z,24.43
2022-09-13T06:18:27.096Z,23.50
2022-09-13T06:21:30.612Z,22.07
2022-09-13T06:24:37.596Z,21.77
2022-09-13T06:27:41.967Z,22.23
2022-09-13T06:30:47.566Z,23.47
2022-09-13T06:33:57.554Z,22.93
2022-09-13T06:37:01.162Z,22.47
2022-09-13T06:40:06.792Z,24.60
2022-09-13T06:43:10.379Z,23.10
2022-09-13T06:46:24.602Z,24.13
2022-09-13T06:49:31.540Z,22.93
2022-09-13T06:52:35.316Z,21.27
2022-09-13T06:55:38.933Z,21.30
2022-09-13T06:58:45.039Z,18.83
2022-09-13T07:01:50.423Z,19.20
2022-09-13T07:04:54.219Z,16.63
2022-09-13T07:07:57.811Z,16.70
2022-09-13T07:11:01.698Z,15.13
2022-09-13T07:14:07.424Z,16.73
2022-09-13T07:17:12.452Z,15.60
2022-09-13T07:20:17.499Z,16.90
2022-09-13T07:23:21.087Z,14.83
2022-09-13T07:26:26.971Z,15.67
2022-09-13T07:29:30.887Z,12.97
2022-09-13T07:32:35.875Z,13.87
2022-09-13T07:35:39.475Z,12.93
2022-09-13T07:38:45.871Z,13.70
2022-09-13T07:41:49.585Z,14.63
2022-09-13T07:44:53.103Z,13.63
2022-09-13T07:47:58.219Z,14.73
2022-09-13T07:51:04.434Z,13.03
2022-09-13T07:54:11.553Z,14.17
2022-09-13T07:57:15.326Z,13.77
2022-09-13T08:00:19.180Z,14.23
2022-09-13T08:03:24.092Z,14.03
2022-09-13T08:06:30.086Z,13.43
2022-09-13T08:09:33.643Z,9.83
2022-09-13T08:12:37.198Z,10.77
2022-09-13T08:15:40.791Z,9.30
2022-09-13T08:18:51.697Z,8.00
2022-09-13T08:21:55.326Z,8.40
2022-09-13T08:24:58.949Z,7.70
2022-09-13T08:28:02.528Z,8.53
2022-09-13T08:31:08.795Z,10.23
2022-09-13T08:34:15.803Z,11.87
2022-09-13T08:37:19.714Z,8.40
2022-09-13T08:40:26.947Z,7.40
2022-09-13T08:43:52.202Z,5.27
2022-09-13T08:47:05.559Z,5.40
2022-09-13T08:50:21.105Z,4.30
2022-09-13T08:53:31.209Z,3.90
2022-09-13T08:56:46.075Z,4.07
2022-09-13T09:00:03.569Z,3.80
2022-09-13T09:03:25.358Z,3.00
2022-09-13T09:06:30.749Z,2.60
2022-09-13T09:09:41.286Z,2.00
2022-09-13T09:12:51.222Z,2.00
2022-09-13T09:16:01.172Z,2.43
2022-09-13T09:19:18.157Z,1.87
2022-09-13T09:22:31.110Z,1.60
2022-09-13T09:25:36.751Z,1.90
2022-09-13T09:28:40.608Z,1.40
2022-09-13T09:32:09.375Z,1.70
2022-09-13T09:35:31.418Z,2.00
2022-09-13T09:38:44.115Z,1.30
2022-09-13T09:41:48.092Z,1.20
2022-09-13T09:44:56.471Z,1.43
2022-09-13T09:48:09.368Z,1.30
2022-09-13T09:51:16.708Z,0.97
2022-09-13T09:54:22.115Z,1.30
2022-09-13T09:57:54.586Z,1.03
2022-09-13T10:01:01.995Z,1.33
2022-09-13T10:04:19.616Z,1.00
2022-09-13T10:07:32.759Z,0.97
2022-09-13T10:10:43.617Z,0.70
2022-09-13T10:14:01.941Z,1.47
2022-09-13T10:17:19.468Z,0.90
2022-09-13T10:20:26.735Z,1.10
2022-09-13T10:23:31.574Z,0.90
2022-09-13T10:26:36.687Z,0.90
2022-09-13T10:29:40.332Z,1.13
2022-09-13T10:32:56.681Z,0.93
2022-09-13T10:36:05.712Z,0.63
2022-09-13T10:39:18.966Z,0.70
2022-09-13T10:42:28.367Z,0.60
2022-09-13T10:45:33.331Z,0.73
2022-09-13T10:48:55.914Z,0.80
2022-09-13T10:51:59.464Z,0.70
2022-09-13T10:55:39.070Z,1.30
2022-09-13T10:58:43.986Z,0.80
2022-09-13T11:01:57.043Z,0.90
2022-09-13T11:05:22.201Z,0.90
2022-09-13T11:08:48.513Z,0.63
2022-09-13T11:12:06.878Z,0.67
2022-09-13T11:15:28.655Z,1.00
2022-09-13T11:19:08.841Z,1.27
2022-09-13T11:22:32.082Z,0.87
2022-09-13T11:26:02.163Z,0.73
2022-09-13T11:29:24.582Z,0.90
2022-09-13T11:32:49.124Z,1.00
2022-09-13T11:36:19.161Z,1.00
2022-09-13T11:39:33.630Z,0.77
2022-09-13T11:42:51.402Z,1.00
2022-09-13T11:46:10.302Z,1.20
2022-09-13T11:50:14.418Z,0.93
2022-09-13T11:54:08.071Z,0.80
2022-09-13T11:57:18.641Z,0.77
2022-09-13T12:00:27.908Z,0.73
2022-09-13T12:03:43.837Z,0.70
2022-09-13T12:06:56.063Z,1.13
2022-09-13T12:10:07.745Z,0.80
2022-09-13T12:13:19.782Z,0.80
2022-09-13T12:16:34.089Z,0.83
2022-09-13T12:19:49.778Z,1.10
2022-09-13T12:22:59.383Z,1.10
2022-09-13T12:26:09.812Z,0.77
2022-09-13T12:29:19.366Z,1.50
2022-09-13T12:32:23.797Z,0.73
2022-09-13T12:35:33.959Z,0.57
2022-09-13T12:39:24.056Z,0.70
2022-09-13T12:43:18.429Z,0.93
2022-09-13T12:47:20.703Z,0.90
2022-09-13T12:51:05.990Z,1.03
2022-09-13T12:54:44.781Z,0.73
2022-09-13T12:57:58.888Z,0.90
2022-09-13T13:01:15.735Z,0.73
2022-09-13T13:04:25.272Z,1.00
2022-09-13T13:07:34.176Z,0.67
2022-09-13T13:10:40.784Z,0.87
2022-09-13T13:13:55.184Z,1.00
2022-09-13T13:17:52.757Z,0.60
2022-09-13T13:21:27.926Z,0.63
2022-09-13T13:24:49.533Z,0.70
2022-09-13T13:27:55.232Z,0.70
2022-09-13T13:31:04.156Z,0.80
2022-09-13T13:34:43.783Z,0.97
2022-09-13T13:37:47.449Z,0.90
2022-09-13T13:40:54.137Z,0.57
2022-09-13T13:43:59.425Z,0.90
2022-09-13T13:47:53.574Z,0.63
2022-09-13T13:51:20.475Z,1.20
2022-09-13T13:54:47.484Z,0.60
2022-09-13T13:58:02.236Z,0.70
2022-09-13T14:01:07.941Z,1.00
2022-09-13T14:05:10.259Z,0.60
2022-09-13T14:08:34.910Z,0.80
2022-09-13T14:11:59.280Z,0.63
2022-09-13T14:15:24.890Z,1.07
2022-09-13T14:19:01.290Z,0.50
2022-09-13T14:22:24.019Z,0.80
2022-09-13T14:25:28.355Z,0.87
2022-09-13T14:28:34.564Z,0.80
2022-09-13T14:31:39.471Z,0.73
2022-09-13T14:34:56.318Z,0.90
2022-09-13T14:38:13.803Z,1.00
2022-09-13T14:41:20.934Z,0.67
2022-09-13T14:44:29.086Z,0.70
2022-09-13T14:47:39.471Z,0.63
2022-09-13T14:50:54.010Z,1.00
2022-09-13T14:54:06.183Z,1.03
2022-09-13T14:57:24.100Z,0.67
2022-09-13T15:00:29.177Z,1.00
2022-09-13T15:03:33.131Z,1.37
2022-09-13T15:06:44.308Z,0.90
2022-09-13T15:09:48.681Z,1.20
2022-09-13T15:12:56.690Z,1.37
2022-09-13T15:16:00.563Z,1.10
2022-09-13T15:19:32.810Z,1.07
2022-09-13T15:22:44.287Z,1.17
2022-09-13T15:25:55.619Z,1.40
2022-09-13T15:29:04.271Z,1.50
2022-09-13T15:32:21.170Z,0.93
2022-09-13T15:35:30.210Z,1.00
2022-09-13T15:38:35.499Z,1.20
2022-09-13T15:41:41.703Z,1.40
2022-09-13T15:44:45.759Z,1.17
2022-09-13T15:47:51.996Z,1.40
2022-09-13T15:51:13.598Z,1.40
2022-09-13T15:54:19.492Z,1.50
2022-09-13T15:57:26.936Z,1.47
2022-09-13T16:00:30.567Z,1.63
2022-09-13T16:03:34.454Z,1.20
2022-09-13T16:06:39.095Z,0.90
2022-09-13T16:09:46.029Z,1.30
2022-09-13T16:12:51.526Z,1.37
2022-09-13T16:15:58.132Z,1.47
2022-09-13T16:19:01.968Z,1.33
2022-09-13T16:22:09.671Z,1.03
2022-09-13T16:25:17.797Z,0.97
2022-09-13T16:28:21.789Z,1.13
2022-09-13T16:31:25.859Z,1.37
2022-09-13T16:34:29.650Z,1.30
2022-09-13T16:37:33.362Z,1.63
2022-09-13T16:40:49.721Z,1.10
2022-09-13T16:43:57.359Z,0.73
2022-09-13T16:47:01.395Z,0.80
2022-09-13T16:50:06.434Z,1.10
2022-09-13T16:53:10.618Z,0.90
2022-09-13T16:56:18.876Z,0.90
2022-09-13T16:59:22.722Z,1.03
2022-09-13T17:02:28.018Z,1.10
2022-09-13T17:05:31.704Z,1.60
2022-09-13T17:08:38.263Z,0.90
2022-09-13T17:11:46.307Z,0.97
2022-09-13T17:14:50.779Z,1.13
2022-09-13T17:17:54.343Z,0.90
2022-09-13T17:21:01.448Z,1.00
2022-09-13T17:24:08.997Z,1.00
2022-09-13T17:27:16.386Z,0.93
2022-09-13T17:30:20.260Z,1.23
2022-09-13T17:33:23.875Z,1.47
2022-09-13T17:36:27.755Z,1.43
2022-09-13T17:39:32.099Z,1.13
2022-09-13T17:42:37.103Z,1.37
2022-09-13T17:45:40.907Z,1.70
2022-09-13T17:48:45.718Z,0.80
2022-09-13T17:51:49.358Z,0.90
2022-09-13T17:54:53.018Z,1.30
2022-09-13T17:57:58.107Z,0.73
2022-09-13T18:01:03.721Z,1.00
2022-09-13T18:04:07.869Z,0.83
2022-09-13T18:07:11.486Z,1.20
2022-09-13T18:10:32.551Z,1.03
2022-09-13T18:13:41.192Z,0.90
2022-09-13T18:16:46.017Z,0.93
2022-09-13T18:19:49.802Z,1.17
2022-09-13T18:22:53.412Z,1.10
2022-09-13T18:26:04.753Z,1.43
2022-09-13T18:29:15.147Z,1.20
2022-09-13T18:32:19.755Z,1.50
2022-09-13T18:35:23.472Z,1.30
2022-09-13T18:38:28.215Z,1.30
2022-09-13T18:41:35.070Z,1.43
2022-09-13T18:44:40.013Z,1.07
2022-09-13T18:47:43.707Z,1.37
2022-09-13T18:50:47.240Z,1.20
2022-09-13T18:53:52.118Z,0.93
2022-09-13T18:56:56.371Z,0.97
2022-09-13T19:00:02.888Z,0.97
2022-09-13T19:03:12.339Z,0.90
2022-09-13T19:06:20.025Z,1.30
2022-09-13T19:09:24.553Z,1.40
2022-09-13T19:12:28.144Z,1.80
2022-09-13T19:15:38.183Z,1.40
2022-09-13T19:18:43.343Z,1.07
2022-09-13T19:21:47.280Z,1.30
2022-09-13T19:24:52.527Z,1.30
2022-09-13T19:27:56.156Z,1.03
2022-09-13T19:31:07.425Z,2.13
2022-09-13T19:34:14.795Z,1.30
2022-09-13T19:37:18.466Z,3.53
2022-09-13T19:40:23.170Z,2.20
2022-09-13T19:43:26.944Z,1.83
2022-09-13T19:46:35.744Z,1.63
2022-09-13T19:49:40.369Z,1.00
2022-09-13T19:52:44.078Z,2.37
2022-09-13T19:55:49.074Z,1.27
2022-09-13T19:58:53.171Z,1.33
2022-09-13T20:01:58.261Z,1.23
2022-09-13T20:05:02.087Z,1.40
2022-09-13T20:08:06.632Z,1.27
2022-09-13T20:11:12.379Z,1.53
2022-09-13T20:14:19.128Z,1.80
2022-09-13T20:17:25.508Z,1.30
2022-09-13T20:20:29.173Z,1.50
2022-09-13T20:23:33.499Z,1.43
2022-09-13T20:26:37.130Z,1.57
2022-09-13T20:29:41.426Z,1.03
2022-09-13T20:32:47.861Z,1.20
2022-09-13T20:35:52.154Z,1.37
2022-09-13T20:39:02.280Z,1.07
2022-09-13T20:42:07.224Z,1.23
2022-09-13T20:45:30.742Z,1.40
2022-09-13T20:48:36.007Z,1.33
2022-09-13T20:51:39.735Z,1.50
2022-09-13T20:54:43.350Z,1.27
2022-09-13T20:57:48.509Z,1.10
2022-09-13T21:00:52.062Z,1.10
2022-09-13T21:03:58.406Z,1.17
2022-09-13T21:07:19.782Z,1.30
2022-09-13T21:10:24.652Z,1.73
2022-09-13T21:13:28.263Z,1.13
2022-09-13T21:16:36.078Z,1.50
2022-09-13T21:19:41.087Z,1.20
2022-09-13T21:22:44.700Z,1.20
2022-09-13T21:25:49.675Z,1.40
2022-09-13T21:28:54.066Z,1.13
2022-09-13T21:31:57.712Z,1.30
2022-09-13T21:35:02.678Z,1.80
2022-09-13T21:38:06.316Z,1.40
2022-09-13T21:41:14.071Z,1.40
2022-09-13T21:44:17.978Z,1.20
2022-09-13T21:47:21.593Z,1.40
2022-09-13T21:50:26.603Z,1.50
2022-09-13T21:53:32.935Z,1.43
2022-09-13T21:56:39.886Z,1.63
2022-09-13T21:59:43.507Z,1.30
2022-09-13T22:02:47.224Z,2.00
2022-09-13T22:05:58.627Z,1.10
2022-09-13T22:09:05.679Z,1.40
2022-09-13T22:12:09.323Z,1.50
2022-09-13T22:15:13.194Z,1.50
2022-09-13T22:18:16.800Z,1.70
2022-09-13T22:21:24.116Z,1.63
2022-09-13T22:24:31.235Z,1.83
2022-09-13T22:27:35.372Z,1.80
2022-09-13T22:30:38.950Z,1.70
2022-09-13T22:33:43.780Z,2.10
2022-09-13T22:36:48.864Z,1.70
2022-09-13T22:39:52.932Z,2.10
2022-09-13T22:42:56.462Z,1.97
2022-09-13T22:46:23.560Z,1.43
2022-09-13T22:49:27.152Z,2.40
2022-09-13T22:52:32.887Z,1.70
2022-09-13T22:55:36.438Z,1.90
2022-09-13T22:58:40.942Z,1.83
2022-09-13T23:01:45.458Z,1.50
2022-09-13T23:04:49.100Z,1.60
2022-09-13T23:07:54.126Z,2.07
2022-09-13T23:11:08.791Z,1.93
2022-09-13T23:14:17.511Z,1.70
2022-09-13T23:17:21.175Z,1.90
2022-09-13T23:20:25.020Z,2.23
2022-09-13T23:23:30.152Z,2.20
2022-09-13T23:26:34.245Z,2.07
2022-09-13T23:29:37.963Z,1.70
2022-09-13T23:32:41.550Z,2.20
2022-09-13T23:35:45.835Z,1.90
2022-09-13T23:38:57.613Z,2.33
2022-09-13T23:42:01.369Z,1.77
2022-09-13T23:45:05.632Z,1.80
2022-09-13T23:48:09.205Z,1.80
2022-09-13T23:51:16.810Z,2.13
2022-09-13T23:54:22.182Z,1.57
2022-09-13T23:57:25.783Z,1.93
